KOOA/OOA METAR and TAF weather

Enter ICAO airport designator
Station Type Date Time Source
KOOA METAR 2021/07/26 15:55 UTC NOAA

KOOA 261555Z AUTO 00000KT 10SM CLR 30/21 A3009 RMK AO2 T02970209


Station Type Date Time Source
KOOA Decoded METAR 2021/07/26 15:55 UTC NOAA

Oskaloosa, Oskaloosa Municipal Airport, IA, United States (KOOA) 41-13-34N 092-29-37W
Jul 26, 2021 - 11:55 AM EDT / 2021.07.26 1555 UTC
Wind: Calm:0
Visibility: 10 mile(s):0
Sky conditions: clear
Temperature: 85.5 F (29.7 C)
Dew Point: 69.6 F (20.9 C)
Relative Humidity: 59%
Pressure (altimeter): 30.09 in. Hg (1018 hPa)
ob: KOOA 261555Z AUTO 00000KT 10SM CLR 30/21 A3009 RMK AO2 T02970209
cycle: 16

Station Type Date Time Source
KOOA TAF UTC NOAA

Error!

Example: see airport list